Time;durP1;ratioP1;P1;durP2;ratioP2;P2;SDS_P1;SDS_P2;PMS_P1;PMS_P2;Temp;Humidity;BMP_temperature;BMP_pressure;BME280_temperature;BME280_humidity;BME280_pressure;Samples;Min_cycle;Max_cycle;Signal;HPM_P1;HPM_P2
2021/08/14 00:00:04;;;;;;;;;7.00;5.00;;;;;25.32;44.26;101799.59;5076614;28;45378;-46
2021/08/14 00:02:29;;;;;;;;;5.50;5.00;;;;;25.32;43.76;101807.56;5076552;28;46563;-46
2021/08/14 00:04:54;;;;;;;;;7.00;5.75;;;;;25.31;44.10;101803.19;5076686;28;45412;-49
2021/08/14 00:07:21;;;;;;;;;6.25;4.75;;;;;25.30;43.92;101804.97;5077010;28;45359;-51
2021/08/14 00:09:46;;;;;;;;;4.00;4.00;;;;;25.31;43.89;101804.03;5077325;28;45231;-49
2021/08/14 00:12:11;;;;;;;;;5.00;4.75;;;;;25.31;44.36;101804.03;5076384;27;45270;-50
2021/08/14 00:14:37;;;;;;;;;6.25;4.00;;;;;25.32;44.05;101800.44;5076550;28;45235;-48
2021/08/14 00:17:03;;;;;;;;;4.75;4.00;;;;;25.32;44.52;101804.91;5076581;28;45372;-47
2021/08/14 00:19:29;;;;;;;;;5.00;3.50;;;;;25.32;44.12;101805.75;5076771;27;45212;-47
2021/08/14 00:21:55;;;;;;;;;5.75;3.75;;;;;25.30;44.12;101798.84;5076382;28;46214;-48
2021/08/14 00:24:20;;;;;;;;;5.75;3.00;;;;;25.29;44.33;101795.34;5076620;28;45308;-46
2021/08/14 00:26:45;;;;;;;;;6.50;4.75;;;;;25.30;44.17;101793.53;5076214;28;48361;-46
2021/08/14 00:29:11;;;;;;;;;6.50;5.25;;;;;25.30;44.29;101797.03;5076543;28;45298;-47
2021/08/14 00:31:36;;;;;;;;;5.50;5.50;;;;;25.29;43.83;101783.84;5075945;28;50385;-49
2021/08/14 00:34:02;;;;;;;;;5.50;4.25;;;;;25.28;44.13;101785.66;5076380;27;46122;-51
2021/08/14 00:36:27;;;;;;;;;5.75;5.75;;;;;25.28;43.64;101783.03;5076416;28;45516;-48
2021/08/14 00:38:52;;;;;;;;;6.00;5.00;;;;;25.29;44.18;101781.19;5076639;27;45584;-50
2021/08/14 00:41:18;;;;;;;;;5.00;3.25;;;;;25.26;43.70;101784.91;5076708;28;46383;-49
2021/08/14 00:43:45;;;;;;;;;5.25;5.00;;;;;25.28;44.06;101796.28;5079715;28;45454;-50
2021/08/14 00:46:12;;;;;;;;;5.00;4.00;;;;;25.28;44.08;101793.63;5079702;28;45399;-49
2021/08/14 00:48:38;;;;;;;;;6.25;4.50;;;;;25.26;43.89;101792.88;5080149;28;45277;-49
2021/08/14 00:51:07;;;;;;;;;4.25;4.25;;;;;25.26;43.62;101795.53;5079565;28;45293;-48
2021/08/14 00:53:34;;;;;;;;;7.50;5.00;;;;;25.25;43.89;101787.63;5079646;28;45433;-47
2021/08/14 00:55:59;;;;;;;;;7.00;4.00;;;;;25.25;43.58;101793.81;5079792;27;45332;-46
2021/08/14 00:58:26;;;;;;;;;5.25;5.25;;;;;25.24;43.82;101794.75;5079629;28;45410;-46
2021/08/14 01:00:52;;;;;;;;;4.00;3.75;;;;;25.24;43.48;101793.91;5079776;28;45333;-46
2021/08/14 01:03:18;;;;;;;;;5.75;5.25;;;;;25.23;43.92;101793.03;5079415;28;45244;-48
2021/08/14 01:05:45;;;;;;;;;4.75;4.00;;;;;25.24;43.65;101794.75;5078831;28;45233;-47
2021/08/14 01:08:13;;;;;;;;;6.00;4.75;;;;;25.24;43.46;101802.72;5079496;27;45452;-48
2021/08/14 01:10:38;;;;;;;;;5.00;4.00;;;;;25.23;43.77;101795.69;5079287;27;45382;-49
2021/08/14 01:13:04;;;;;;;;;7.75;4.00;;;;;25.22;43.24;101790.50;5079269;27;45344;-47
2021/08/14 01:15:29;;;;;;;;;5.00;3.00;;;;;25.19;43.58;101780.91;5079469;27;45271;-48
2021/08/14 01:17:57;;;;;;;;;4.00;4.00;;;;;25.23;43.21;101786.91;5061562;28;45381;-51
2021/08/14 01:20:22;;;;;;;;;4.00;4.00;;;;;25.23;43.79;101792.22;5079105;28;46329;-49
2021/08/14 01:22:48;;;;;;;;;5.25;3.00;;;;;25.22;43.33;101783.38;5060828;28;45280;-49
2021/08/14 01:25:13;;;;;;;;;5.00;5.00;;;;;25.23;43.15;101785.09;5079156;28;45237;-47
2021/08/14 01:27:39;;;;;;;;;6.00;4.00;;;;;25.21;43.66;101776.34;5079256;27;45331;-50
2021/08/14 01:30:05;;;;;;;;;6.00;4.00;;;;;25.22;43.08;101780.72;5078913;28;46503;-50
2021/08/14 01:32:31;;;;;;;;;4.25;4.25;;;;;25.19;43.74;101772.94;5078804;28;45561;-48
2021/08/14 01:35:00;;;;;;;;;4.75;4.75;;;;;25.21;43.68;101776.34;5079076;28;45426;-48
2021/08/14 01:37:27;;;;;;;;;5.00;5.00;;;;;25.19;43.12;101772.94;5079168;28;45354;-47
2021/08/14 01:39:52;;;;;;;;;8.00;4.75;;;;;25.18;43.76;101773.91;5061085;28;45788;-49
2021/08/14 01:42:17;;;;;;;;;3.25;3.00;;;;;25.19;42.87;101778.25;5078753;28;47104;-49
2021/08/14 01:44:44;;;;;;;;;5.25;4.00;;;;;25.20;43.02;101779.13;5078810;28;45374;-49
2021/08/14 01:47:10;;;;;;;;;4.25;4.25;;;;;25.18;43.06;101765.97;5079062;27;45640;-47
2021/08/14 01:49:36;;;;;;;;;3.75;3.25;;;;;25.18;42.90;101765.97;5078678;27;45425;-48
2021/08/14 01:52:17;;;;;;;;;4.25;4.25;;;;;25.17;43.45;101772.22;5078313;28;46118;-47
2021/08/14 01:54:43;;;;;;;;;6.25;3.75;;;;;25.17;42.72;101764.25;5060369;28;45435;-50
2021/08/14 01:57:09;;;;;;;;;6.00;4.00;;;;;25.17;43.00;101769.56;5079037;28;45332;-51
2021/08/14 01:59:35;;;;;;;;;7.00;6.50;;;;;25.16;42.79;101767.84;5078249;28;47399;-51
2021/08/14 02:02:02;;;;;;;;;4.00;4.00;;;;;25.15;43.07;101763.47;5078481;28;45353;-51
2021/08/14 02:04:28;;;;;;;;;8.50;6.00;;;;;25.14;42.82;101759.97;5078530;28;45369;-50
2021/08/14 02:06:53;;;;;;;;;5.75;5.50;;;;;25.16;43.21;101759.88;5079054;28;45308;-49
2021/08/14 02:09:19;;;;;;;;;5.75;3.25;;;;;25.15;42.63;101761.66;5078346;28;46512;-51
2021/08/14 02:11:44;;;;;;;;;5.00;4.00;;;;;25.15;43.13;101750.22;5078234;28;45315;-50
2021/08/14 02:14:09;;;;;;;;;5.25;4.00;;;;;25.15;42.65;101760.81;5078555;28;45325;-49
2021/08/14 02:16:35;;;;;;;;;7.25;5.00;;;;;25.14;42.90;101752.00;5078584;28;45384;-51
2021/08/14 02:19:01;;;;;;;;;5.00;3.50;;;;;25.13;42.71;101752.97;5078167;27;45429;-51
2021/08/14 02:21:27;;;;;;;;;4.00;4.00;;;;;25.11;42.58;101754.00;5078421;27;45284;-48
2021/08/14 02:23:53;;;;;;;;;3.50;3.00;;;;;25.13;42.71;101744.16;5078594;28;45370;-51
2021/08/14 02:26:19;;;;;;;;;5.50;4.00;;;;;25.12;42.90;101745.97;5078406;28;45453;-48
2021/08/14 02:28:44;;;;;;;;;6.25;5.25;;;;;25.12;43.21;101745.09;5059780;28;47943;-48
2021/08/14 02:31:10;;;;;;;;;5.50;5.00;;;;;25.12;43.07;101755.69;5078099;28;45246;-48
2021/08/14 02:33:35;;;;;;;;;6.50;5.25;;;;;25.11;42.62;101738.94;5077996;28;45463;-48
2021/08/14 02:36:02;;;;;;;;;6.50;4.00;;;;;25.11;43.20;101738.06;5078215;28;45548;-47
2021/08/14 02:38:28;;;;;;;;;5.00;5.00;;;;;25.10;42.94;101745.19;5078245;28;47345;-46
2021/08/14 02:40:53;;;;;;;;;4.50;4.50;;;;;25.10;42.63;101736.38;5077860;27;45394;-48
2021/08/14 02:43:18;;;;;;;;;6.25;5.50;;;;;25.11;42.85;101740.72;5078143;28;45457;-48
2021/08/14 02:45:44;;;;;;;;;8.25;3.75;;;;;25.12;42.71;101739.78;5078029;28;45331;-46
2021/08/14 02:48:10;;;;;;;;;5.75;5.75;;;;;25.10;43.10;101737.22;5077503;28;45429;-49
2021/08/14 02:50:37;;;;;;;;;6.50;4.50;;;;;25.11;43.13;101738.06;5077671;28;45288;-47
2021/08/14 02:53:03;;;;;;;;;3.00;3.00;;;;;25.10;42.86;101728.41;5077914;27;45240;-48
2021/08/14 02:55:28;;;;;;;;;5.50;3.75;;;;;25.10;42.98;101731.06;5078347;27;45548;-51
2021/08/14 02:57:53;;;;;;;;;5.25;4.25;;;;;25.08;42.43;101725.03;5077538;28;45266;-50
2021/08/14 03:00:19;;;;;;;;;7.50;5.00;;;;;25.10;42.84;101723.97;5077242;28;45238;-48
2021/08/14 03:02:45;;;;;;;;;4.25;4.25;;;;;25.08;43.09;101725.03;5077809;28;45310;-46
2021/08/14 03:05:10;;;;;;;;;4.50;3.75;;;;;25.08;42.77;101723.22;5076912;28;45377;-47
2021/08/14 03:07:35;;;;;;;;;4.75;4.50;;;;;25.07;43.07;101720.66;5077501;28;46406;-47
2021/08/14 03:10:01;;;;;;;;;4.25;4.25;;;;;25.08;42.91;101717.06;5077680;27;45377;-48
2021/08/14 03:12:26;;;;;;;;;5.25;4.50;;;;;25.07;43.07;101715.34;5077812;28;45398;-48
2021/08/14 03:14:52;;;;;;;;;4.00;3.50;;;;;25.06;42.71;101716.31;5077639;27;45608;-46
2021/08/14 03:17:18;;;;;;;;;3.25;3.25;;;;;25.08;42.61;101719.72;5077205;28;46576;-49
2021/08/14 03:19:43;;;;;;;;;8.50;4.25;;;;;25.07;42.86;101715.34;5077176;28;45375;-51
2021/08/14 03:22:09;;;;;;;;;5.25;5.00;;;;;25.06;42.50;101711.00;5077400;28;45458;-48
2021/08/14 03:24:36;;;;;;;;;4.50;4.00;;;;;25.07;42.49;101712.69;5077599;28;45481;-46
2021/08/14 03:27:01;;;;;;;;;4.00;2.50;;;;;25.06;42.39;101714.50;5077122;28;46359;-46
2021/08/14 03:29:26;;;;;;;;;4.00;4.00;;;;;25.05;42.99;101707.47;5077503;27;45216;-50
2021/08/14 03:31:51;;;;;;;;;5.00;3.75;;;;;25.04;42.30;101711.06;5077097;27;45239;-47
2021/08/14 03:34:17;;;;;;;;;3.50;3.50;;;;;25.05;42.34;101711.94;5077357;28;45207;-48
2021/08/14 03:36:42;;;;;;;;;9.00;6.00;;;;;25.03;42.71;101706.72;5076948;28;46275;-48
2021/08/14 03:39:08;;;;;;;;;6.25;6.25;;;;;25.03;42.79;101703.22;5076961;28;45204;-50
2021/08/14 03:41:34;;;;;;;;;5.25;4.25;;;;;25.03;42.50;101697.91;5077128;28;45367;-49
2021/08/14 03:44:00;;;;;;;;;5.00;3.75;;;;;25.01;42.88;101705.97;5077592;28;45593;-49
2021/08/14 03:46:25;;;;;;;;;7.25;5.25;;;;;25.00;43.03;101699.81;5076768;28;46608;-46
2021/08/14 03:48:51;;;;;;;;;5.75;4.00;;;;;25.00;42.80;101705.09;5076948;28;45421;-52
2021/08/14 03:51:16;;;;;;;;;4.00;3.75;;;;;25.01;42.56;101701.50;5077056;28;45410;-49
2021/08/14 03:53:41;;;;;;;;;5.00;5.00;;;;;25.01;42.71;101695.38;5076996;27;45425;-47
2021/08/14 03:56:06;;;;;;;;;4.00;4.00;;;;;25.01;42.38;101700.66;5076692;28;45348;-49
2021/08/14 03:58:34;;;;;;;;;8.50;5.75;;;;;24.99;42.32;101689.28;5076922;28;45373;-49
2021/08/14 04:00:59;;;;;;;;;5.00;5.00;;;;;25.00;42.39;101693.66;5058917;28;45348;-50
2021/08/14 04:03:25;;;;;;;;;4.00;2.00;;;;;25.00;42.36;101698.97;5076911;28;45754;-49
2021/08/14 04:05:50;;;;;;;;;6.50;4.00;;;;;24.99;42.32;101689.28;5076586;28;46416;-49
2021/08/14 04:08:18;;;;;;;;;4.75;4.25;;;;;24.99;42.31;101695.44;5076204;28;54385;-48
2021/08/14 04:10:44;;;;;;;;;6.50;4.00;;;;;24.99;42.45;101691.94;5076733;28;45183;-48
2021/08/14 04:13:10;;;;;;;;;5.75;4.25;;;;;24.98;42.77;101685.78;5076809;28;45316;-48
2021/08/14 04:15:35;;;;;;;;;5.50;4.00;;;;;24.99;42.31;101691.94;5077215;28;45371;-47
2021/08/14 04:18:01;;;;;;;;;5.00;5.00;;;;;24.95;42.14;101688.63;5080376;27;45355;-49
2021/08/14 04:20:26;;;;;;;;;5.25;5.25;;;;;24.97;42.35;101686.72;5080254;28;45455;-47
2021/08/14 04:22:51;;;;;;;;;6.75;5.50;;;;;24.96;42.80;101682.38;5080330;28;45429;-47
2021/08/14 04:25:17;;;;;;;;;6.75;4.00;;;;;24.96;42.21;101679.75;5079925;27;45315;-49
2021/08/14 04:27:42;;;;;;;;;5.25;5.25;;;;;24.97;42.10;101685.88;5079989;28;45276;-47
2021/08/14 04:30:08;;;;;;;;;7.25;4.00;;;;;24.95;42.75;101679.81;5080136;27;45342;-46
2021/08/14 04:32:35;;;;;;;;;6.25;5.25;;;;;24.96;42.40;101678.88;5080290;27;45646;-52
2021/08/14 04:35:11;;;;;;;;;7.75;5.50;;;;;24.93;42.88;101677.25;5080135;27;46531;-52
2021/08/14 04:37:37;;;;;;;;;4.50;4.50;;;;;24.96;42.26;101679.75;5079916;27;45399;-49
2021/08/14 04:40:05;;;;;;;;;6.00;5.50;;;;;24.95;42.81;101672.72;5080259;28;45280;-49
2021/08/14 04:42:31;;;;;;;;;7.25;5.50;;;;;24.93;42.75;101665.78;5080277;28;45572;-49
2021/08/14 04:44:56;;;;;;;;;6.50;5.25;;;;;24.95;42.85;101669.19;5079542;27;45260;-48
2021/08/14 04:47:21;;;;;;;;;4.25;4.25;;;;;24.94;42.66;101668.38;5079714;28;45382;-50
2021/08/14 04:49:47;;;;;;;;;4.50;4.50;;;;;24.95;42.81;101670.06;5079845;28;45351;-51
2021/08/14 04:52:12;;;;;;;;;5.00;5.00;;;;;24.95;42.38;101659.47;5079958;28;45459;-52
2021/08/14 04:54:37;;;;;;;;;6.25;4.50;;;;;24.95;42.79;101664.78;5079536;28;45425;-53
2021/08/14 04:57:03;;;;;;;;;6.50;5.00;;;;;24.96;42.39;101670.91;5079785;28;45411;-52
2021/08/14 04:59:29;;;;;;;;;6.25;4.50;;;;;24.95;42.52;101664.78;5079452;27;45319;-50
2021/08/14 05:01:54;;;;;;;;;5.00;4.50;;;;;24.95;42.38;101656.81;5079731;28;45309;-51
2021/08/14 05:04:23;;;;;;;;;9.25;7.50;;;;;24.95;42.39;101663.91;5079474;27;46210;-52
2021/08/14 05:06:48;;;;;;;;;9.25;7.00;;;;;24.95;42.60;101669.19;5079536;28;45978;-51
2021/08/14 05:09:13;;;;;;;;;8.75;8.50;;;;;24.93;43.18;101661.34;5079512;28;45362;-48
2021/08/14 05:11:39;;;;;;;;;12.00;10.00;;;;;24.95;42.60;101664.78;5079546;28;45261;-52
2021/08/14 05:14:04;;;;;;;;;1.25;1.25;;;;;24.95;43.13;101667.41;5079485;27;45753;-48
2021/08/14 05:16:31;;;;;;;;;13.50;12.50;;;;;24.96;43.02;101665.59;5079318;28;45324;-49
2021/08/14 05:18:56;;;;;;;;;14.25;13.25;;;;;24.94;43.04;101673.66;5079382;28;45379;-53
2021/08/14 05:21:22;;;;;;;;;18.25;17.25;;;;;24.95;42.85;101674.50;5079258;28;45490;-52
2021/08/14 05:23:47;;;;;;;;;22.25;21.00;;;;;24.94;42.47;101671.03;5078993;27;46588;-47
2021/08/14 05:26:13;;;;;;;;;24.25;20.25;;;;;24.94;42.87;101670.16;5079087;27;45296;-47
2021/08/14 05:28:38;;;;;;;;;20.00;19.00;;;;;24.93;42.69;101671.09;5078206;27;45367;-56
2021/08/14 05:31:04;;;;;;;;;21.75;17.00;;;;;24.91;42.91;101667.69;5061306;28;45614;-56
2021/08/14 05:33:29;;;;;;;;;14.00;12.25;;;;;24.92;42.27;101672.91;5078836;28;45444;-47
2021/08/14 05:35:55;;;;;;;;;14.00;12.25;;;;;24.90;42.80;101671.31;5078923;28;45307;-46
2021/08/14 05:38:20;;;;;;;;;15.25;13.00;;;;;24.90;42.68;101672.13;5078945;28;45319;-47
2021/08/14 05:40:45;;;;;;;;;12.00;10.00;;;;;24.89;42.23;101678.38;5079100;27;45580;-48
2021/08/14 05:43:11;;;;;;;;;10.25;10.00;;;;;24.89;42.10;101680.19;5078778;27;46296;-52
2021/08/14 05:45:36;;;;;;;;;8.25;5.50;;;;;24.88;41.89;101681.13;5079123;27;45301;-49
2021/08/14 05:48:06;;;;;;;;;8.50;8.00;;;;;24.86;41.93;101675.91;5078941;27;45232;-48
2021/08/14 05:50:32;;;;;;;;;7.75;6.50;;;;;24.85;42.34;101690.16;5079053;27;45390;-50
2021/08/14 05:52:58;;;;;;;;;8.50;6.50;;;;;24.86;41.94;101689.16;5078631;28;46205;-53
2021/08/14 05:55:24;;;;;;;;;7.75;5.25;;;;;24.85;42.15;101690.97;5078772;28;45421;-47
2021/08/14 05:57:49;;;;;;;;;7.00;4.00;;;;;24.83;42.62;101686.72;5078753;28;45358;-47
2021/08/14 06:00:15;;;;;;;;;5.50;5.50;;;;;24.83;42.41;101686.72;5078572;27;45568;-50
2021/08/14 06:02:40;;;;;;;;;8.25;5.50;;;;;24.81;42.08;101691.25;5078416;27;46303;-48
2021/08/14 06:05:06;;;;;;;;;6.50;5.50;;;;;24.81;42.36;101693.91;5078823;28;45236;-47
2021/08/14 06:07:32;;;;;;;;;7.00;4.25;;;;;24.80;42.03;101701.03;5078624;28;45273;-48
2021/08/14 06:09:57;;;;;;;;;5.75;5.75;;;;;24.81;42.23;101696.56;5078803;28;45213;-48
2021/08/14 06:12:22;;;;;;;;;9.25;6.25;;;;;24.79;42.28;101703.75;5078349;28;46081;-51
2021/08/14 06:14:49;;;;;;;;;4.75;4.75;;;;;24.79;41.75;101703.75;5078211;28;47611;-50
2021/08/14 06:17:14;;;;;;;;;6.75;5.25;;;;;24.78;42.19;101707.34;5078431;27;45351;-53
2021/08/14 06:19:40;;;;;;;;;6.00;5.00;;;;;24.76;42.50;101702.16;5078498;28;45406;-49
2021/08/14 06:22:05;;;;;;;;;5.25;4.75;;;;;24.75;42.50;101704.91;5060188;28;47553;-50
2021/08/14 06:24:31;;;;;;;;;6.75;6.75;;;;;24.78;42.38;101707.34;5078090;27;45461;-51
2021/08/14 06:26:56;;;;;;;;;8.25;6.00;;;;;24.78;42.50;101705.56;5078273;27;45382;-52
2021/08/14 06:29:21;;;;;;;;;8.00;6.75;;;;;24.80;42.50;101708.97;5078284;27;45541;-51
2021/08/14 06:31:47;;;;;;;;;5.25;5.25;;;;;24.81;42.10;101705.34;5077954;28;46491;-51
2021/08/14 06:34:12;;;;;;;;;7.75;6.00;;;;;24.82;42.73;101706.22;5078141;28;45442;-51
2021/08/14 06:36:37;;;;;;;;;5.75;5.00;;;;;24.83;42.41;101707.94;5078511;27;45346;-51
2021/08/14 06:39:03;;;;;;;;;4.75;4.75;;;;;24.85;42.34;101714.00;5077094;27;45551;-52
2021/08/14 06:41:28;;;;;;;;;6.00;5.00;;;;;24.87;41.87;101709.44;5077665;28;46892;-51
2021/08/14 06:43:54;;;;;;;;;6.25;6.00;;;;;24.86;42.39;101702.44;5077826;28;45378;-52
2021/08/14 06:46:19;;;;;;;;;5.25;5.25;;;;;24.89;42.62;101707.56;5078069;28;45428;-48
2021/08/14 06:48:45;;;;;;;;;9.00;6.00;;;;;24.89;42.46;101696.09;5078144;28;45260;-54
2021/08/14 06:51:12;;;;;;;;;8.50;6.00;;;;;24.89;42.12;101696.94;5077796;28;45459;-50
2021/08/14 06:53:37;;;;;;;;;6.00;6.00;;;;;24.91;41.91;101699.53;5077478;28;45382;-50
2021/08/14 06:56:03;;;;;;;;;6.00;3.75;;;;;24.94;42.27;101704.63;5058290;28;45430;-50
2021/08/14 06:58:29;;;;;;;;;4.75;4.00;;;;;24.95;42.17;101706.34;5058310;28;45625;-52
2021/08/14 07:00:54;;;;;;;;;7.50;6.00;;;;;24.94;42.17;101699.31;5076144;28;45421;-52
2021/08/14 07:03:20;;;;;;;;;6.25;6.25;;;;;24.95;42.39;101701.91;5077460;28;45185;-53
2021/08/14 07:05:45;;;;;;;;;5.00;4.50;;;;;24.97;41.76;101710.59;5077602;28;45208;-53
2021/08/14 07:08:10;;;;;;;;;6.75;1.50;;;;;24.94;41.86;101705.50;5078148;28;45272;-54
2021/08/14 07:10:36;;;;;;;;;8.00;5.50;;;;;24.98;41.57;101704.34;5077374;28;45445;-50
2021/08/14 07:13:02;;;;;;;;;6.75;6.75;;;;;24.99;41.57;101702.56;5077468;27;45283;-49
2021/08/14 07:15:28;;;;;;;;;5.00;4.25;;;;;25.00;41.52;101698.97;5077520;28;45481;-50
2021/08/14 07:17:53;;;;;;;;;5.75;5.75;;;;;24.99;42.02;101698.09;5077604;27;45695;-52
2021/08/14 07:20:18;;;;;;;;;4.75;4.75;;;;;24.99;41.95;101700.75;5077291;28;46428;-49
2021/08/14 07:22:44;;;;;;;;;7.50;5.75;;;;;25.01;41.76;101700.66;5077266;28;45388;-49
2021/08/14 07:25:09;;;;;;;;;7.25;4.75;;;;;25.00;41.41;101705.09;5077774;27;45338;-47
2021/08/14 07:27:35;;;;;;;;;8.25;5.00;;;;;25.01;41.64;101701.50;5077524;28;45435;-50
2021/08/14 07:30:00;;;;;;;;;4.25;3.50;;;;;25.03;41.08;101698.75;5077160;28;46120;-47
2021/08/14 07:32:26;;;;;;;;;6.50;4.50;;;;;25.04;41.54;101702.28;5077073;28;45445;-48
2021/08/14 07:34:52;;;;;;;;;7.00;5.00;;;;;25.04;41.18;101696.97;5077141;27;45416;-51
2021/08/14 07:37:17;;;;;;;;;6.25;5.25;;;;;25.05;41.35;101698.69;5077297;28;45644;-50
2021/08/14 07:39:43;;;;;;;;;6.00;5.00;;;;;25.05;41.01;101694.22;5077132;28;45507;-49
2021/08/14 07:42:08;;;;;;;;;6.75;4.00;;;;;25.05;41.07;101691.56;5077114;28;45303;-53
2021/08/14 07:44:33;;;;;;;;;5.50;5.50;;;;;25.07;40.94;101688.84;5077167;28;45252;-51
2021/08/14 07:46:59;;;;;;;;;7.25;5.00;;;;;25.08;41.49;101694.03;5077181;28;45294;-52
2021/08/14 07:49:24;;;;;;;;;7.00;6.75;;;;;25.08;41.43;101694.03;5076835;28;46281;-54
2021/08/14 07:51:50;;;;;;;;;4.75;4.75;;;;;25.10;41.46;101691.28;5076347;28;45247;-51
2021/08/14 07:54:15;;;;;;;;;5.50;4.75;;;;;25.10;40.63;101691.28;5076951;28;45358;-55
2021/08/14 07:56:40;;;;;;;;;7.75;5.25;;;;;25.11;40.99;101699.16;5077043;27;45574;-54
2021/08/14 07:59:06;;;;;;;;;5.75;4.00;;;;;25.11;40.85;101687.69;5076456;27;46554;-48
2021/08/14 08:01:32;;;;;;;;;5.50;5.00;;;;;25.12;41.16;101681.44;5076537;28;45317;-50
2021/08/14 08:03:57;;;;;;;;;3.25;3.25;;;;;25.15;40.74;101689.19;5076879;28;45388;-53
2021/08/14 08:06:23;;;;;;;;;6.75;5.50;;;;;25.16;40.74;101685.59;5076891;28;45252;-50
2021/08/14 08:08:48;;;;;;;;;6.75;6.00;;;;;25.16;40.70;101682.97;5076573;28;45360;-49
2021/08/14 08:11:13;;;;;;;;;5.00;5.00;;;;;25.16;40.78;101678.50;5076852;28;45291;-49
2021/08/14 08:13:39;;;;;;;;;5.00;5.00;;;;;25.16;41.03;101672.34;5076718;27;45371;-49
2021/08/14 08:16:04;;;;;;;;;7.50;5.75;;;;;25.18;40.50;101681.06;5076661;28;45557;-48
2021/08/14 08:18:29;;;;;;;;;5.00;3.25;;;;;25.17;40.83;101674.88;5076396;27;45434;-53
2021/08/14 08:20:55;;;;;;;;;5.00;4.25;;;;;25.18;40.47;101675.75;5076224;28;45982;-52
2021/08/14 08:23:20;;;;;;;;;6.00;6.00;;;;;25.19;40.40;101672.13;5076554;27;45743;-50
2021/08/14 08:25:45;;;;;;;;;5.75;5.25;;;;;25.21;40.36;101674.72;5058518;28;45785;-47
2021/08/14 08:28:10;;;;;;;;;7.00;5.00;;;;;25.19;40.54;101672.13;5076350;28;50727;-47
2021/08/14 08:30:36;;;;;;;;;7.75;5.00;;;;;25.22;40.01;101677.25;5076429;28;45302;-53
2021/08/14 08:33:01;;;;;;;;;6.25;4.00;;;;;25.23;40.25;101681.63;5076489;28;45371;-51
2021/08/14 08:35:27;;;;;;;;;5.50;5.00;;;;;25.23;40.32;101676.31;5076716;28;45598;-51
2021/08/14 08:37:52;;;;;;;;;5.75;5.25;;;;;25.22;40.13;101671.94;5076177;28;46581;-50
2021/08/14 08:40:19;;;;;;;;;4.50;4.50;;;;;25.25;40.07;101674.41;5076136;28;45240;-50
2021/08/14 08:42:46;;;;;;;;;5.25;4.25;;;;;25.26;40.05;101668.16;5076678;28;45245;-50
2021/08/14 08:45:12;;;;;;;;;5.50;5.50;;;;;25.27;40.20;101675.19;5076804;28;45357;-52
2021/08/14 08:47:41;;;;;;;;;5.75;5.75;;;;;25.26;40.54;101673.47;5075937;28;47276;-50
2021/08/14 08:50:08;;;;;;;;;4.25;4.00;;;;;25.29;40.29;101669.78;5076150;28;45861;-51
2021/08/14 08:52:34;;;;;;;;;4.50;3.50;;;;;25.29;40.24;101672.41;5058001;28;45332;-49
2021/08/14 08:54:59;;;;;;;;;6.00;6.00;;;;;25.30;39.87;101664.34;5076384;27;45418;-53
2021/08/14 08:57:25;;;;;;;;;9.00;5.50;;;;;25.30;40.07;101661.69;5075923;28;46125;-51
2021/08/14 08:59:50;;;;;;;;;6.50;5.50;;;;;25.31;39.75;101666.06;5075757;28;45465;-51
2021/08/14 09:02:35;;;;;;;;;5.00;4.25;;;;;25.32;39.91;101657.16;5076710;28;45453;-54
2021/08/14 09:05:04;;;;;;;;;6.00;5.00;;;;;25.32;39.72;101654.50;5079769;27;45366;-52
2021/08/14 09:07:29;;;;;;;;;10.50;6.25;;;;;25.35;40.11;101652.59;5079254;27;46112;-53
2021/08/14 09:09:59;;;;;;;;;5.25;5.25;;;;;25.36;40.25;101651.66;5079088;28;51967;-51
2021/08/14 09:12:33;;;;;;;;;5.00;4.00;;;;;25.36;40.06;101647.19;5079475;27;45387;-51
2021/08/14 09:14:59;;;;;;;;;6.25;6.25;;;;;25.37;39.97;101648.91;5079583;28;45518;-47
2021/08/14 09:17:26;;;;;;;;;6.50;5.50;;;;;25.39;39.65;101648.81;5078309;28;45520;-48
2021/08/14 09:20:05;;;;;;;;;4.00;4.00;;;;;25.38;40.44;101645.31;5079039;27;45718;-47
2021/08/14 09:22:30;;;;;;;;;5.75;4.00;;;;;25.39;39.97;101651.47;5079240;28;45423;-46
2021/08/14 09:24:55;;;;;;;;;7.75;5.50;;;;;25.41;39.71;101646.97;5079533;27;45574;-49
2021/08/14 09:27:21;;;;;;;;;3.75;3.75;;;;;25.42;39.96;101644.19;5079114;28;45387;-50
2021/08/14 09:29:46;;;;;;;;;4.00;4.00;;;;;25.42;40.05;101645.97;5079563;28;45410;-52
2021/08/14 09:32:14;;;;;;;;;6.00;5.00;;;;;25.43;39.98;101653.00;5079212;27;45332;-48
2021/08/14 09:34:46;;;;;;;;;6.75;6.00;;;;;25.44;39.70;101644.09;5061435;28;45315;-49
2021/08/14 09:37:14;;;;;;;;;6.00;5.00;;;;;25.45;40.08;101643.16;5078800;27;46236;-48
2021/08/14 09:39:57;;;;;;;;;7.50;5.00;;;;;25.45;39.94;101646.66;5078944;27;45723;-49
2021/08/14 09:42:23;;;;;;;;;6.25;5.25;;;;;25.46;39.88;101639.53;5078898;28;45334;-51
2021/08/14 09:45:14;;;;;;;;;7.75;6.00;;;;;25.47;39.37;101639.44;5079125;27;45321;-48
2021/08/14 09:47:41;;;;;;;;;4.25;4.00;;;;;25.49;39.71;101641.13;5078632;27;46396;-47
2021/08/14 09:50:08;;;;;;;;;5.25;4.00;;;;;25.48;39.33;101637.66;5078747;27;45194;-50
2021/08/14 09:52:33;;;;;;;;;4.75;4.75;;;;;25.50;39.64;101633.09;5078771;28;45338;-47
2021/08/14 09:54:59;;;;;;;;;4.50;4.50;;;;;25.51;39.87;101633.94;5078993;27;45249;-47
2021/08/14 09:57:25;;;;;;;;;4.75;4.75;;;;;25.50;40.16;101638.41;5078506;27;45245;-47
2021/08/14 09:59:51;;;;;;;;;6.75;5.00;;;;;25.51;39.44;101640.13;5078369;28;45563;-47
2021/08/14 10:02:23;;;;;;;;;5.75;4.75;;;;;25.52;39.94;101633.81;5079096;27;45449;-48
2021/08/14 10:04:50;;;;;;;;;10.25;5.25;;;;;25.50;39.51;101630.44;5079091;28;45582;-48
2021/08/14 10:07:15;;;;;;;;;8.25;4.50;;;;;25.52;40.03;101628.53;5078722;28;45676;-53
2021/08/14 10:09:46;;;;;;;;;5.00;4.00;;;;;25.54;40.08;101623.97;5078515;28;45438;-50
2021/08/14 10:12:13;;;;;;;;;5.00;5.00;;;;;25.55;39.85;101623.03;5077789;28;45321;-50
2021/08/14 10:14:40;;;;;;;;;4.75;4.75;;;;;25.56;39.96;101618.59;5078473;27;45222;-48
2021/08/14 10:17:06;;;;;;;;;5.50;4.75;;;;;25.56;39.77;101615.94;5078362;28;46230;-50
2021/08/14 10:19:32;;;;;;;;;7.75;6.25;;;;;25.58;40.26;101616.66;5078130;27;45786;-48
2021/08/14 10:21:58;;;;;;;;;4.25;4.25;;;;;25.57;39.59;101618.47;5078183;28;45348;-49
2021/08/14 10:24:24;;;;;;;;;8.50;5.00;;;;;25.57;40.22;101613.16;5078466;28;45413;-50
2021/08/14 10:27:03;;;;;;;;;6.00;5.50;;;;;25.59;39.42;101621.88;5078444;27;46544;-46
2021/08/14 10:30:01;;;;;;;;;6.25;6.25;;;;;25.59;39.89;101619.22;5059760;28;45304;-48
2021/08/14 10:32:29;;;;;;;;;6.75;6.75;;;;;25.60;40.03;101612.09;5033297;28;45600;-50
2021/08/14 10:35:16;;;;;;;;;7.25;6.00;;;;;25.60;39.74;101604.13;5078137;28;45320;-50
2021/08/14 10:37:46;;;;;;;;;6.25;4.00;;;;;25.60;39.44;101606.78;5077891;28;46563;-50
2021/08/14 10:40:13;;;;;;;;;5.75;4.25;;;;;25.61;39.45;101598.75;5077932;28;45718;-50
2021/08/14 10:42:52;;;;;;;;;6.00;4.50;;;;;25.62;39.06;101591.63;5078013;27;45489;-52
2021/08/14 10:45:29;;;;;;;;;4.25;4.25;;;;;25.61;39.81;101590.78;5078339;28;45231;-48
2021/08/14 10:47:55;;;;;;;;;5.50;3.75;;;;;25.62;39.33;101579.22;5077761;28;45427;-48
2021/08/14 10:50:32;;;;;;;;;6.25;5.00;;;;;25.63;39.24;101585.38;5078161;28;45238;-49
2021/08/14 10:53:10;;;;;;;;;5.25;4.25;;;;;25.63;39.35;101583.53;5059580;28;45335;-47
2021/08/14 10:55:36;;;;;;;;;7.50;7.00;;;;;25.63;39.26;101580.91;5078013;28;45421;-47
2021/08/14 10:58:27;;;;;;;;;6.25;6.25;;;;;25.65;39.19;101582.59;5077603;28;45414;-48
2021/08/14 11:01:13;;;;;;;;;7.00;6.00;;;;;25.65;39.25;101574.63;5078006;27;45282;-48
2021/08/14 11:03:39;;;;;;;;;8.25;5.00;;;;;25.66;39.22;101573.69;5077226;27;45275;-48
2021/08/14 11:06:28;;;;;;;;;7.75;5.75;;;;;25.66;38.89;101573.69;5077851;28;45502;-48
2021/08/14 11:09:18;;;;;;;;;8.25;8.00;;;;;25.67;38.50;101570.09;5077363;28;46357;-48
2021/08/14 11:11:57;;;;;;;;;4.75;4.75;;;;;25.65;38.56;101561.38;5077464;28;45770;-50
2021/08/14 11:14:41;;;;;;;;;5.00;5.00;;;;;25.68;38.52;101566.47;5077882;28;45249;-50
2021/08/14 11:17:07;;;;;;;;;5.50;5.50;;;;;25.68;38.39;101561.16;5077649;28;45528;-49
2021/08/14 11:19:50;;;;;;;;;7.25;5.50;;;;;25.70;38.66;101564.56;5077177;28;46181;-55
2021/08/14 11:22:30;;;;;;;;;5.75;4.25;;;;;25.69;38.86;101562.88;5077464;28;45334;-53